Latest Weather Observations for Sellicks Hill

IDS60901

Issued at 8:51 pm CST Tuesday 28 June 2016 (issued every 10 minutes, with the page automatically refreshed every 10 minutes)

About weather observations | Map of Adelaide area stations | Latest observations for Adelaide area | Other Formats
Station Details ID: 023886 Name: MOUNT TERRIBLE RADAR Lat: -35.33 Lon: 138.50 Height: 385.7 m
Data from the previous 72 hours. | See also: Recent months for locations in South Australia
Date/Time
CST
Temp
°C
App
Temp
°C
Dew
Point
°C
Rel
Hum
%
Delta-T
°C
Wind Press
QNH
hPa
Press
MSL
hPa
Rain since
9am
mm
Dir  Spd
km/h
Gust
km/h
Spd
kts
Gust
kts
28/08:30pm - - - - - NNW 13 19 7 10 - - -
28/08:00pm - - - - - NNW 13 19 7 10 - - -
28/07:30pm - - - - - NNW 13 19 7 10 - - -
28/07:00pm - - - - - NNW 15 22 8 12 - - -
28/06:30pm - - - - - NW 17 28 9 15 - - -
28/06:00pm - - - - - NNW 11 17 6 9 - - -
28/05:30pm - - - - - NNW 11 19 6 10 - - -
28/05:00pm - - - - - NNW 11 17 6 9 - - -
28/04:30pm - - - - - NNW 13 22 7 12 - - -
28/04:00pm - - - - - NNW 15 26 8 14 - - -
28/03:30pm - - - - - NNW 19 30 10 16 - - -
28/03:00pm - - - - - NNW 17 28 9 15 - - -
28/02:30pm - - - - - NNW 17 32 9 17 - - -
28/02:00pm - - - - - NNW 17 33 9 18 - - -
28/01:30pm - - - - - NNW 17 24 9 13 - - -
28/01:00pm - - - - - NNW 19 32 10 17 - - -
28/12:30pm - - - - - NNW 17 28 9 15 - - -
28/12:00pm - - - - - NNW 17 30 9 16 - - -
28/11:30am - - - - - NNW 13 20 7 11 - - -
28/11:00am - - - - - NNW 11 20 6 11 - - -
28/10:30am - - - - - NNW 13 22 7 12 - - -
28/10:00am - - - - - NNW 11 17 6 9 - - -
28/09:30am - - - - - NNW 11 19 6 10 - - -
28/09:00am - - - - - NNW 11 20 6 11 - - -
28/08:30am - - - - - NNW 11 22 6 12 - - -
28/08:00am - - - - - NNW 11 20 6 11 - - -
28/07:30am - - - - - NNW 9 17 5 9 - - -
28/07:00am - - - - - NNW 11 22 6 12 - - -
28/06:30am - - - - - NNW 9 19 5 10 - - -
28/06:00am - - - - - NNW 9 22 5 12 - - -
28/05:30am - - - - - NNW 11 20 6 11 - - -
28/05:00am - - - - - NNW 13 22 7 12 - - -
28/04:30am - - - - - NNW 11 17 6 9 - - -
28/04:00am - - - - - NNW 11 19 6 10 - - -
28/03:30am - - - - - NNW 13 24 7 13 - - -
28/03:00am - - - - - NNW 11 19 6 10 - - -
28/02:30am - - - - - NNW 13 20 7 11 - - -
28/02:00am - - - - - NNW 11 17 6 9 - - -
28/01:30am - - - - - NNW 11 19 6 10 - - -
28/01:00am - - - - - NNW 13 19 7 10 - - -
28/12:30am - - - - - NW 17 28 9 15 - - -
28/12:00am - - - - - NW 13 24 7 13 - - -
 
Date/Time
CST
Temp
°C
App
Temp
°C
Dew
Point
°C
Rel
Hum
%
Delta-T
°C
Wind Press
QNH
hPa
Press
MSL
hPa
Rain since
9am
mm
Dir  Spd
km/h
Gust
km/h
Spd
kts
Gust
kts
27/11:30pm - - - - - NW 15 24 8 13 - - -
27/11:00pm - - - - - NNW 13 20 7 11 - - -
27/10:30pm - - - - - NNW 13 22 7 12 - - -
27/10:00pm - - - - - NNW 11 17 6 9 - - -
27/09:30pm - - - - - NNW 9 13 5 7 - - -
27/09:00pm - - - - - NW 9 19 5 10 - - -
27/08:30pm - - - - - NNW 7 17 4 9 - - -
27/08:00pm - - - - - NNW 6 11 3 6 - - -
27/07:30pm - - - - - NW 9 19 5 10 - - -
27/07:00pm - - - - - NNW 7 13 4 7 - - -
27/06:30pm - - - - - NNW 7 13 4 7 - - -
27/06:00pm - - - - - NNW 7 13 4 7 - - -
27/05:30pm - - - - - NNW 7 13 4 7 - - -
27/05:00pm - - - - - NNW 7 13 4 7 - - -
27/04:30pm - - - - - NW 6 13 3 7 - - -
27/04:00pm - - - - - NW 7 13 4 7 - - -
27/03:30pm - - - - - NW 7 15 4 8 - - -
27/03:00pm - - - - - NW 9 17 5 9 - - -
27/02:30pm - - - - - NW 9 17 5 9 - - -
27/02:00pm - - - - - NW 7 13 4 7 - - -
27/01:30pm - - - - - WNW 6 15 3 8 - - -
27/01:00pm - - - - - WNW 6 9 3 5 - - -
27/12:30pm - - - - - WNW 7 17 4 9 - - -
27/12:00pm - - - - - WNW 6 13 3 7 - - -
27/11:30am - - - - - WNW 6 9 3 5 - - -
27/11:00am - - - - - WNW 4 11 2 6 - - -
27/10:30am - - - - - W 4 9 2 5 - - -
27/10:00am - - - - - W 6 9 3 5 - - -
27/09:30am - - - - - WSW 6 9 3 5 - - -
27/09:00am - - - - - WSW 6 11 3 6 - - -
27/08:30am - - - - - WSW 6 11 3 6 - - -
27/08:00am - - - - - SW 7 13 4 7 - - -
27/07:30am - - - - - WSW 6 9 3 5 - - -
27/07:00am - - - - - SSW 7 11 4 6 - - -
27/06:30am - - - - - SW 7 11 4 6 - - -
27/06:00am - - - - - SSW 7 11 4 6 - - -
27/05:30am - - - - - WSW 6 13 3 7 - - -
27/05:00am - - - - - SSW 7 13 4 7 - - -
27/04:30am - - - - - SW 6 9 3 5 - - -
27/04:00am - - - - - SW 6 11 3 6 - - -
27/03:30am - - - - - W 2 4 1 2 - - -
27/03:00am - - - - - NW 2 7 1 4 - - -
27/02:30am - - - - - NNW 6 9 3 5 - - -
27/02:00am - - - - - WNW 4 9 2 5 - - -
27/01:30am - - - - - NW 4 9 2 5 - - -
27/01:00am - - - - - N 6 9 3 5 - - -
27/12:30am - - - - - NNW 6 13 3 7 - - -
27/12:00am - - - - - NW 7 13 4 7 - - -
 
Date/Time
CST
Temp
°C
App
Temp
°C
Dew
Point
°C
Rel
Hum
%
Delta-T
°C
Wind Press
QNH
hPa
Press
MSL
hPa
Rain since
9am
mm
Dir  Spd
km/h
Gust
km/h
Spd
kts
Gust
kts
26/11:30pm - - - - - N 6 15 3 8 - - -
26/11:00pm - - - - - N 6 11 3 6 - - -
26/10:30pm - - - - - N 6 11 3 6 - - -
26/10:00pm - - - - - NNW 7 13 4 7 - - -
26/09:30pm - - - - - NNW 9 13 5 7 - - -
26/09:00pm - - - - - NNW 9 15 5 8 - - -
26/08:30pm - - - - - NNW 11 17 6 9 - - -
26/08:00pm - - - - - NW 9 15 5 8 - - -
26/07:30pm - - - - - NW 11 17 6 9 - - -
26/07:00pm - - - - - NW 11 20 6 11 - - -
26/06:30pm - - - - - NW 11 17 6 9 - - -
26/06:00pm - - - - - NNW 11 20 6 11 - - -
26/05:30pm - - - - - NW 11 22 6 12 - - -
26/05:00pm - - - - - NNW 9 17 5 9 - - -
26/04:30pm - - - - - NNW 11 19 6 10 - - -
26/04:00pm - - - - - NNW 11 20 6 11 - - -
26/03:30pm - - - - - NW 13 20 7 11 - - -
26/03:00pm - - - - - NNW 17 26 9 14 - - -
26/02:30pm - - - - - NNW 11 22 6 12 - - -
26/02:00pm - - - - - NW 11 20 6 11 - - -
26/01:30pm - - - - - NNW 17 26 9 14 - - -
26/01:00pm - - - - - NNW 19 30 10 16 - - -
26/12:30pm - - - - - NW 13 20 7 11 - - -
26/12:00pm - - - - - NNW 17 26 9 14 - - -
26/11:30am - - - - - NNW 19 33 10 18 - - -
26/11:00am - - - - - NNW 15 26 8 14 - - -
26/10:30am - - - - - NNW 11 17 6 9 - - -
26/10:00am - - - - - N 9 13 5 7 - - -
26/09:30am - - - - - NNW 7 17 4 9 - - -
26/09:00am - - - - - NNW 15 26 8 14 - - -
26/08:30am - - - - - N 9 20 5 11 - - -
26/08:00am - - - - - NNW 9 17 5 9 - - -
26/07:30am - - - - - N 6 11 3 6 - - -
26/07:00am - - - - - NNW 7 15 4 8 - - -
26/06:30am - - - - - N 6 13 3 7 - - -
26/06:00am - - - - - NNW 9 17 5 9 - - -
26/05:30am - - - - - NNW 9 17 5 9 - - -
26/05:00am - - - - - N 9 19 5 10 - - -
26/04:30am - - - - - NNW 11 20 6 11 - - -
26/04:00am - - - - - N 9 17 5 9 - - -
26/03:30am - - - - - N 9 19 5 10 - - -
26/03:00am - - - - - N 9 15 5 8 - - -
26/02:30am - - - - - NNW 11 20 6 11 - - -
26/02:00am - - - - - NNW 9 15 5 8 - - -
26/01:30am - - - - - N 11 22 6 12 - - -
26/01:00am - - - - - NNW 11 20 6 11 - - -
26/12:30am - - - - - N 7 20 4 11 - - -
26/12:00am - - - - - N 7 15 4 8 - - -
 
Date/Time
CST
Temp
°C
App
Temp
°C
Dew
Point
°C
Rel
Hum
%
Delta-T
°C
Wind Press
QNH
hPa
Press
MSL
hPa
Rain since
9am
mm
Dir  Spd
km/h
Gust
km/h
Spd
kts
Gust
kts
25/11:30pm - - - - - N 7 17 4 9 - - -
25/11:00pm - - - - - N 7 17 4 9 - - -
25/10:30pm - - - - - N 6 9 3 5 - - -
25/10:00pm - - - - - NNW 7 13 4 7 - - -
25/09:30pm - - - - - N 4 6 2 3 - - -
25/09:00pm - - - - - N 4 6 2 3 - - -

Latest Capital City Observations: Canberra | Sydney | Melbourne | Brisbane | Adelaide | Perth | Hobart | Darwin

Other Formats:

Comma delimited format used in spreadsheet applications
http://www.bom.gov.au/fwo/IDS60901/IDS60901.95679.axf

JavaScript Object Notation format (JSON) in row-major order
http://www.bom.gov.au/fwo/IDS60901/IDS60901.95679.json